Time;durP1;ratioP1;P1;durP2;ratioP2;P2;SDS_P1;SDS_P2;PMS_P1;PMS_P2;Temp;Humidity;BMP_temperature;BMP_pressure;BME280_temperature;BME280_humidity;BME280_pressure;Samples;Min_cycle;Max_cycle;Signal;HPM_P1;HPM_P2
2021/06/24 00:00:45;;;;;;;17.45;6.28;;;25.90;72.50;;;;;;5057488;28;20033;-89
2021/06/24 00:03:12;;;;;;;27.02;5.18;;;25.90;72.60;;;;;;5075132;28;20027;-89
2021/06/24 00:05:38;;;;;;;16.13;5.50;;;25.90;72.70;;;;;;5057351;28;20136;-89
2021/06/24 00:08:04;;;;;;;17.65;6.00;;;25.90;72.90;;;;;;5057121;28;20025;-89
2021/06/24 00:10:30;;;;;;;17.55;5.60;;;26.00;73.30;;;;;;5057057;28;20037;-88
2021/06/24 00:12:55;;;;;;;15.13;5.68;;;25.90;73.50;;;;;;5057603;28;20111;-89
2021/06/24 00:15:21;;;;;;;13.35;5.28;;;25.90;73.70;;;;;;5057028;28;20032;-89
2021/06/24 00:17:46;;;;;;;26.17;6.72;;;26.00;74.10;;;;;;5057154;28;20469;-90
2021/06/24 00:20:13;;;;;;;26.10;6.15;;;25.90;74.40;;;;;;5056228;28;20025;-89
2021/06/24 00:22:39;;;;;;;20.88;7.95;;;26.00;74.80;;;;;;5056896;28;20063;-89
2021/06/24 00:25:05;;;;;;;20.20;6.05;;;25.90;74.80;;;;;;5057142;28;20048;-89
2021/06/24 00:27:31;;;;;;;22.10;6.47;;;26.00;75.20;;;;;;5056829;28;20044;-89
2021/06/24 00:29:56;;;;;;;21.48;7.50;;;26.00;75.40;;;;;;5056927;28;20102;-88
2021/06/24 00:32:22;;;;;;;16.08;5.97;;;25.90;75.60;;;;;;5074423;28;20086;-89
2021/06/24 00:34:47;;;;;;;15.88;5.68;;;25.90;75.80;;;;;;5057015;28;20020;-89
2021/06/24 00:37:13;;;;;;;14.73;6.20;;;25.90;76.00;;;;;;5057080;28;20500;-89
2021/06/24 00:39:39;;;;;;;24.08;6.75;;;25.90;76.10;;;;;;5056596;28;20473;-89
2021/06/24 00:42:05;;;;;;;15.25;6.15;;;25.90;76.90;;;;;;5056774;28;20062;-88
2021/06/24 00:44:31;;;;;;;17.52;5.88;;;25.90;76.20;;;;;;5056516;28;20020;-89
2021/06/24 00:46:57;;;;;;;15.90;7.05;;;25.90;76.10;;;;;;5056633;28;20055;-89
2021/06/24 00:49:22;;;;;;;16.23;6.72;;;25.90;76.20;;;;;;5056436;28;20029;-89
2021/06/24 00:51:48;;;;;;;18.13;6.65;;;25.90;76.30;;;;;;5056638;28;20036;-88
2021/06/24 00:54:14;;;;;;;16.13;6.55;;;25.90;76.40;;;;;;5056875;28;20029;-89
2021/06/24 00:56:39;;;;;;;14.35;6.53;;;25.90;76.40;;;;;;5056640;28;20123;-87
2021/06/24 00:59:05;;;;;;;14.15;5.57;;;25.80;76.60;;;;;;5056712;28;20055;-89
2021/06/24 01:01:32;;;;;;;16.83;6.47;;;25.70;76.80;;;;;;5056333;28;20032;-89
2021/06/24 01:03:58;;;;;;;16.23;6.43;;;25.70;76.90;;;;;;5055892;28;20024;-89
2021/06/24 01:06:24;;;;;;;14.48;6.75;;;25.70;77.00;;;;;;5056252;28;20123;-89
2021/06/24 01:08:50;;;;;;;12.23;5.75;;;25.70;77.10;;;;;;5056029;28;20039;-90
2021/06/24 01:11:17;;;;;;;16.70;7.28;;;25.60;77.20;;;;;;5056404;28;20044;-88
2021/06/24 01:13:44;;;;;;;18.33;6.70;;;25.60;77.40;;;;;;5056395;28;20024;-88
2021/06/24 01:16:10;;;;;;;22.70;6.57;;;25.50;77.60;;;;;;5056078;28;20092;-89
2021/06/24 01:18:36;;;;;;;15.52;7.07;;;25.50;77.70;;;;;;5056100;28;20067;-88
2021/06/24 01:21:03;;;;;;;15.70;6.70;;;25.50;78.10;;;;;;5056201;28;20025;-88
2021/06/24 01:23:35;;;;;;;19.05;6.88;;;25.50;78.50;;;;;;5055940;28;20021;-89
2021/06/24 01:26:01;;;;;;;17.50;5.85;;;25.50;78.60;;;;;;5055785;28;20032;-89
2021/06/24 01:28:27;;;;;;;15.70;7.20;;;25.50;78.80;;;;;;5055852;28;20036;-89
2021/06/24 01:30:52;;;;;;;23.90;6.70;;;25.50;78.80;;;;;;5055672;28;20044;-89
2021/06/24 01:33:18;;;;;;;19.00;7.43;;;25.60;78.80;;;;;;5055533;28;20465;-89
2021/06/24 01:35:44;;;;;;;27.55;7.72;;;25.60;78.70;;;;;;5073230;28;20028;-89
2021/06/24 01:38:11;;;;;;;16.35;6.88;;;25.60;78.60;;;;;;5055577;28;20047;-88
2021/06/24 01:40:37;;;;;;;17.08;7.55;;;25.70;78.50;;;;;;5055605;28;20043;-89
2021/06/24 01:43:04;;;;;;;19.80;7.88;;;25.70;78.30;;;;;;5055533;28;20028;-88
2021/06/24 01:45:30;;;;;;;21.33;6.82;;;25.70;78.20;;;;;;5055853;28;20016;-89
2021/06/24 01:47:55;;;;;;;22.30;7.65;;;25.70;78.10;;;;;;5055549;28;20028;-89
2021/06/24 01:50:22;;;;;;;16.45;6.95;;;25.80;78.20;;;;;;5055123;28;20141;-90
2021/06/24 01:52:49;;;;;;;17.40;6.95;;;25.80;78.00;;;;;;5055337;28;20025;-90
2021/06/24 01:55:16;;;;;;;17.85;7.53;;;25.80;78.00;;;;;;5055200;28;20085;-89
2021/06/24 01:57:42;;;;;;;16.52;7.47;;;25.80;77.90;;;;;;5055510;28;20028;-89
2021/06/24 02:00:11;;;;;;;13.70;6.75;;;25.80;78.00;;;;;;5073263;28;20024;-90
2021/06/24 02:02:37;;;;;;;17.88;6.80;;;25.80;78.00;;;;;;5055551;28;20028;-89
2021/06/24 02:05:04;;;;;;;29.40;7.65;;;25.80;77.90;;;;;;5072402;28;20031;-89
2021/06/24 02:07:30;;;;;;;18.65;6.72;;;25.80;78.00;;;;;;5071456;28;20817;-89
2021/06/24 02:09:56;;;;;;;26.00;7.68;;;25.80;77.90;;;;;;5071326;28;20627;-89
2021/06/24 02:12:21;;;;;;;22.25;9.15;;;25.80;77.90;;;;;;5054891;28;20040;-90
2021/06/24 02:14:47;;;;;;;11.98;6.78;;;25.80;77.90;;;;;;5072828;28;20082;-89
2021/06/24 02:17:13;;;;;;;19.25;7.60;;;25.80;77.90;;;;;;5072673;28;20115;-90
2021/06/24 02:19:38;;;;;;;20.85;7.72;;;25.80;77.80;;;;;;5054953;28;20025;-89
2021/06/24 02:22:04;;;;;;;16.73;7.00;;;25.90;77.70;;;;;;5072609;28;20021;-90
2021/06/24 02:24:30;;;;;;;18.40;7.13;;;25.90;77.80;;;;;;5054866;28;20031;-89
2021/06/24 02:26:55;;;;;;;24.77;7.32;;;25.90;77.70;;;;;;5054681;28;20074;-90
2021/06/24 02:29:21;;;;;;;20.35;7.50;;;25.90;77.80;;;;;;5054714;28;20052;-89
2021/06/24 02:31:46;;;;;;;18.50;6.85;;;25.90;77.60;;;;;;5055088;28;20409;-90
2021/06/24 02:34:13;;;;;;;21.00;6.93;;;25.90;77.50;;;;;;5054894;28;20020;-89
2021/06/24 02:36:39;;;;;;;15.45;7.10;;;25.90;77.30;;;;;;5054865;28;20119;-89
2021/06/24 02:39:05;;;;;;;14.75;6.47;;;25.90;77.40;;;;;;5072314;28;20603;-89
2021/06/24 02:41:33;;;;;;;17.35;7.05;;;26.00;77.50;;;;;;5054566;28;20027;-89
2021/06/24 02:44:00;;;;;;;15.00;6.95;;;25.90;77.40;;;;;;5054298;28;20508;-90
2021/06/24 02:46:25;;;;;;;17.63;7.47;;;26.00;77.50;;;;;;5054412;28;20400;-89
2021/06/24 02:48:51;;;;;;;17.95;7.07;;;25.90;77.60;;;;;;5054648;28;20029;-89
2021/06/24 02:51:17;;;;;;;22.90;7.32;;;25.90;77.70;;;;;;5054486;28;20252;-88
2021/06/24 02:53:42;;;;;;;16.77;7.18;;;25.90;77.90;;;;;;5072594;28;20035;-90
2021/06/24 02:56:08;;;;;;;22.38;8.10;;;25.90;78.00;;;;;;5055037;28;20028;-89
2021/06/24 02:58:34;;;;;;;16.92;7.85;;;25.90;78.00;;;;;;5054632;28;20029;-87
2021/06/24 03:00:59;;;;;;;17.90;7.85;;;25.90;78.00;;;;;;5072286;28;20112;-89
2021/06/24 03:03:25;;;;;;;18.95;7.38;;;25.90;78.10;;;;;;5054502;28;20029;-89
2021/06/24 03:05:51;;;;;;;20.27;7.30;;;26.00;78.00;;;;;;5071965;28;20029;-87
2021/06/24 03:08:17;;;;;;;17.65;7.30;;;26.00;78.00;;;;;;5054873;28;20082;-89
2021/06/24 03:10:42;;;;;;;18.30;7.25;;;26.00;78.00;;;;;;5054147;28;20110;-87
2021/06/24 03:13:08;;;;;;;19.67;7.45;;;26.00;77.90;;;;;;5054605;28;20028;-89
2021/06/24 03:15:36;;;;;;;16.42;7.28;;;26.10;77.80;;;;;;5053997;28;20035;-87
2021/06/24 03:18:02;;;;;;;24.25;7.60;;;26.10;77.60;;;;;;5054274;28;20024;-90
2021/06/24 03:20:28;;;;;;;21.30;7.65;;;26.10;77.50;;;;;;5055835;28;20400;-89
2021/06/24 03:22:59;;;;;;;20.75;7.38;;;26.20;77.40;;;;;;5054256;28;20024;-89
2021/06/24 03:25:26;;;;;;;13.07;6.72;;;26.20;77.30;;;;;;5054658;28;20054;-89
2021/06/24 03:27:52;;;;;;;23.13;8.18;;;26.20;77.20;;;;;;5054097;28;20029;-89
2021/06/24 03:30:19;;;;;;;25.52;7.63;;;26.30;77.10;;;;;;5053812;28;20053;-89
2021/06/24 03:32:44;;;;;;;14.02;6.85;;;26.30;77.00;;;;;;5054171;28;20431;-88
2021/06/24 03:35:11;;;;;;;20.92;7.35;;;26.30;77.00;;;;;;5054447;28;20086;-89
2021/06/24 03:37:37;;;;;;;14.02;6.00;;;26.40;77.10;;;;;;5071724;28;20023;-89
2021/06/24 03:40:09;;;;;;;19.15;7.07;;;26.30;77.10;;;;;;5053671;28;20025;-88
2021/06/24 03:42:34;;;;;;;23.52;7.03;;;26.40;76.90;;;;;;5054336;28;20060;-89
2021/06/24 03:45:00;;;;;;;19.90;6.70;;;26.40;76.50;;;;;;5071774;28;20021;-87
2021/06/24 03:47:26;;;;;;;14.10;6.75;;;26.40;76.40;;;;;;5071787;28;20378;-89
2021/06/24 03:49:51;;;;;;;18.83;7.32;;;26.40;76.30;;;;;;5053634;28;20413;-88
2021/06/24 03:52:17;;;;;;;19.80;6.72;;;26.40;76.20;;;;;;5054125;28;20404;-89
2021/06/24 03:54:42;;;;;;;27.75;7.22;;;26.40;76.30;;;;;;5054172;28;20511;-88
2021/06/24 03:57:08;;;;;;;17.10;7.22;;;26.50;76.10;;;;;;5057502;28;20550;-87
2021/06/24 03:59:34;;;;;;;12.68;6.43;;;26.60;75.50;;;;;;5057688;28;20179;-89
2021/06/24 04:01:59;;;;;;;21.23;6.78;;;26.70;75.20;;;;;;5057870;28;20039;-89
2021/06/24 04:04:25;;;;;;;15.98;6.50;;;26.80;75.20;;;;;;5057785;28;20052;-85
2021/06/24 04:06:50;;;;;;;18.45;6.53;;;26.90;75.10;;;;;;5057184;28;20028;-90
2021/06/24 04:09:16;;;;;;;21.45;7.43;;;27.10;75.30;;;;;;5057343;28;20568;-89
2021/06/24 04:11:42;;;;;;;17.42;7.30;;;27.20;74.50;;;;;;5057322;28;20027;-90
2021/06/24 04:14:08;;;;;;;18.08;6.68;;;27.30;73.90;;;;;;5056871;28;20032;-89
2021/06/24 04:16:33;;;;;;;20.92;7.07;;;27.40;73.60;;;;;;5057134;28;20036;-89
2021/06/24 04:18:59;;;;;;;14.52;7.45;;;27.50;73.40;;;;;;5057294;28;20450;-89
2021/06/24 04:21:25;;;;;;;17.25;6.75;;;27.60;72.90;;;;;;5057100;28;20021;-89
2021/06/24 04:23:50;;;;;;;23.60;6.43;;;27.70;72.60;;;;;;5074943;28;20437;-89
2021/06/24 04:26:16;;;;;;;19.20;6.80;;;27.80;72.10;;;;;;5056970;28;20111;-89
2021/06/24 04:28:42;;;;;;;21.58;6.95;;;27.90;71.70;;;;;;5056649;28;20496;-89
2021/06/24 04:31:08;;;;;;;15.82;6.95;;;27.90;71.20;;;;;;5056954;28;20127;-89
2021/06/24 04:33:36;;;;;;;21.40;6.65;;;28.00;71.60;;;;;;5057271;28;20056;-89
2021/06/24 04:36:02;;;;;;;29.95;7.25;;;28.10;71.20;;;;;;5056720;28;20020;-87
2021/06/24 04:38:28;;;;;;;22.52;7.55;;;28.20;70.90;;;;;;5056544;28;20032;-89
2021/06/24 04:40:53;;;;;;;26.85;7.38;;;28.30;70.60;;;;;;5056793;28;20489;-87
2021/06/24 04:43:19;;;;;;;14.73;7.97;;;28.30;70.30;;;;;;5056730;28;20028;-89
2021/06/24 04:45:45;;;;;;;20.90;6.93;;;28.40;70.00;;;;;;5056785;28;20031;-89
2021/06/24 04:48:10;;;;;;;20.77;7.70;;;28.50;69.80;;;;;;5056541;28;20477;-87
2021/06/24 04:50:36;;;;;;;25.52;8.43;;;28.50;70.10;;;;;;5056748;28;20417;-89
2021/06/24 04:53:02;;;;;;;12.68;6.43;;;28.50;70.10;;;;;;5056422;28;20020;-89
2021/06/24 04:55:38;;;;;;;15.75;7.35;;;28.60;69.90;;;;;;5056362;28;20145;-89
2021/06/24 04:58:04;;;;;;;20.05;7.15;;;28.70;69.40;;;;;;5056626;28;20055;-89
2021/06/24 05:00:30;;;;;;;14.98;6.88;;;28.80;69.50;;;;;;5056332;28;20036;-90
2021/06/24 05:02:56;;;;;;;17.85;6.93;;;28.90;69.00;;;;;;5055870;28;20074;-89
2021/06/24 05:05:21;;;;;;;12.90;6.82;;;29.00;68.70;;;;;;5056047;28;20024;-89
2021/06/24 05:07:47;;;;;;;26.45;8.50;;;29.00;68.70;;;;;;5056069;28;20025;-89
2021/06/24 05:10:14;;;;;;;22.80;6.80;;;29.10;68.30;;;;;;5055910;28;20555;-89
2021/06/24 05:12:39;;;;;;;19.60;7.07;;;29.20;68.20;;;;;;5056073;28;20085;-88
2021/06/24 05:15:06;;;;;;;18.83;6.82;;;29.10;68.30;;;;;;5055905;28;20032;-88
2021/06/24 05:17:32;;;;;;;20.13;7.03;;;29.30;68.40;;;;;;5055763;28;20020;-88
2021/06/24 05:19:58;;;;;;;24.67;7.68;;;29.50;67.90;;;;;;5055875;28;20120;-89
2021/06/24 05:22:25;;;;;;;12.98;6.65;;;29.70;67.20;;;;;;5056005;28;20082;-88
2021/06/24 05:24:50;;;;;;;22.02;7.65;;;29.70;66.80;;;;;;5056384;28;20020;-88
2021/06/24 05:27:16;;;;;;;17.77;7.20;;;29.80;66.70;;;;;;5055854;28;20447;-89
2021/06/24 05:29:42;;;;;;;26.83;7.43;;;29.90;66.40;;;;;;5055301;28;20048;-90
2021/06/24 05:32:07;;;;;;;11.88;6.97;;;29.90;65.90;;;;;;5055726;28;20036;-89
2021/06/24 05:34:33;;;;;;;15.13;6.78;;;30.00;66.00;;;;;;5073608;28;20025;-89
2021/06/24 05:37:00;;;;;;;18.48;7.28;;;30.20;65.40;;;;;;5055323;28;20507;-88
2021/06/24 05:39:27;;;;;;;14.68;7.30;;;30.30;64.70;;;;;;5073344;28;20026;-89
2021/06/24 05:41:56;;;;;;;18.88;7.28;;;30.50;64.30;;;;;;5055707;28;20111;-88
2021/06/24 05:44:22;;;;;;;17.50;7.18;;;30.60;63.60;;;;;;5055845;28;20016;-88
2021/06/24 05:46:48;;;;;;;18.45;7.43;;;30.60;64.20;;;;;;5055204;28;20091;-89
2021/06/24 05:49:14;;;;;;;25.55;8.02;;;31.00;62.80;;;;;;5071403;28;20396;-89
2021/06/24 05:51:39;;;;;;;16.50;6.78;;;31.30;61.60;;;;;;5053780;28;20039;-88
2021/06/24 05:54:05;;;;;;;25.20;6.97;;;31.60;61.00;;;;;;5055280;28;20031;-89
2021/06/24 05:56:37;;;;;;;22.25;7.38;;;31.80;60.30;;;;;;5055169;28;20029;-88
2021/06/24 05:59:03;;;;;;;21.88;6.35;;;32.30;58.40;;;;;;5054904;28;20029;-86
2021/06/24 06:01:29;;;;;;;17.60;7.45;;;32.90;57.00;;;;;;5054642;28;20091;-89
2021/06/24 06:03:55;;;;;;;15.27;6.55;;;33.80;54.30;;;;;;5054488;28;20095;-87
2021/06/24 06:06:21;;;;;;;28.83;7.95;;;34.40;53.20;;;;;;5054608;28;20020;-87
2021/06/24 06:08:47;;;;;;;12.68;5.78;;;35.00;50.50;;;;;;5054938;28;20033;-90
2021/06/24 06:11:13;;;;;;;17.92;6.43;;;35.20;49.90;;;;;;5054949;28;20405;-89
2021/06/24 06:13:38;;;;;;;15.82;6.57;;;35.90;48.40;;;;;;5054887;28;20028;-89
2021/06/24 06:16:04;;;;;;;23.48;6.78;;;36.70;47.40;;;;;;5054972;28;20025;-88
2021/06/24 06:18:31;;;;;;;25.85;7.13;;;37.40;44.90;;;;;;5054143;28;20027;-89
2021/06/24 06:20:58;;;;;;;16.27;5.78;;;37.60;43.60;;;;;;5054869;28;20485;-89
2021/06/24 06:23:27;;;;;;;19.40;7.13;;;38.00;42.70;;;;;;5054771;28;20623;-90
2021/06/24 06:25:53;;;;;;;13.13;5.97;;;37.70;42.70;;;;;;5054650;28;20025;-87
2021/06/24 06:28:21;;;;;;;17.92;6.03;;;37.70;43.40;;;;;;5072256;28;20031;-87
2021/06/24 06:30:49;;;;;;;18.85;6.20;;;37.90;42.00;;;;;;5054505;28;20051;-88
2021/06/24 06:33:19;;;;;;;15.32;6.22;;;38.50;40.30;;;;;;5054673;28;20016;-88
2021/06/24 06:35:45;;;;;;;18.80;5.97;;;38.70;40.10;;;;;;5054288;28;20495;-87
2021/06/24 06:38:11;;;;;;;18.00;6.65;;;38.20;41.00;;;;;;5054265;28;20059;-88
2021/06/24 06:40:38;;;;;;;24.20;8.48;;;38.40;40.70;;;;;;5054200;28;20083;-87
2021/06/24 06:43:05;;;;;;;28.58;6.72;;;38.20;40.60;;;;;;5054284;28;20024;-88
2021/06/24 06:45:31;;;;;;;24.52;6.97;;;38.40;41.00;;;;;;5054420;28;20029;-89
2021/06/24 06:47:57;;;;;;;15.45;6.22;;;39.10;40.20;;;;;;5072416;28;20481;-88
2021/06/24 06:50:23;;;;;;;23.35;6.72;;;38.80;40.50;;;;;;5072298;28;20044;-89
2021/06/24 06:52:48;;;;;;;11.15;6.32;;;39.20;39.60;;;;;;5054650;28;20479;-89
2021/06/24 06:55:14;;;;;;;29.02;6.88;;;39.20;38.90;;;;;;5054264;28;20025;-89
2021/06/24 06:57:40;;;;;;;21.90;7.05;;;38.90;38.80;;;;;;5054630;28;20029;-89
2021/06/24 07:00:09;;;;;;;19.55;6.88;;;38.80;39.80;;;;;;5054724;28;20017;-89
2021/06/24 07:02:36;;;;;;;25.70;6.97;;;39.40;38.70;;;;;;5072323;28;20031;-89
2021/06/24 07:05:01;;;;;;;29.80;6.55;;;39.10;39.70;;;;;;5054350;28;20052;-88
2021/06/24 07:07:27;;;;;;;21.17;7.15;;;39.10;39.10;;;;;;5054271;28;20071;-89
2021/06/24 07:09:53;;;;;;;18.75;6.43;;;39.30;38.60;;;;;;5051393;28;20044;-79
2021/06/24 07:12:19;;;;;;;27.75;6.72;;;39.10;39.30;;;;;;5069102;28;20096;-79
2021/06/24 07:14:45;;;;;;;20.58;7.13;;;39.60;38.90;;;;;;5051244;28;20033;-79
2021/06/24 07:17:11;;;;;;;24.75;6.75;;;39.70;38.30;;;;;;5051130;28;20029;-79
2021/06/24 07:19:36;;;;;;;27.30;7.55;;;39.60;37.50;;;;;;5069059;28;20043;-79
2021/06/24 07:22:02;;;;;;;26.40;6.38;;;39.70;38.40;;;;;;5051069;28;20082;-79
2021/06/24 07:24:28;;;;;;;15.60;6.55;;;39.70;38.80;;;;;;5068937;28;20535;-78
2021/06/24 07:26:53;;;;;;;19.65;6.20;;;40.00;37.70;;;;;;5069052;28;20081;-79
2021/06/24 07:29:19;;;;;;;16.88;6.57;;;40.20;36.90;;;;;;5051889;28;20071;-78
2021/06/24 07:31:45;;;;;;;19.70;6.25;;;40.10;36.80;;;;;;5072865;28;20067;-79
2021/06/24 07:34:11;;;;;;;18.92;6.75;;;40.40;36.50;;;;;;5054614;28;20028;-79
2021/06/24 07:36:37;;;;;;;16.63;7.05;;;40.40;36.90;;;;;;5072622;28;20043;-79
2021/06/24 07:39:03;;;;;;;20.02;7.70;;;40.00;37.70;;;;;;5072709;28;20029;-79
2021/06/24 07:41:29;;;;;;;19.73;7.95;;;40.10;38.70;;;;;;5072714;28;20482;-79
2021/06/24 07:43:54;;;;;;;26.15;8.75;;;40.20;37.20;;;;;;5054812;28;20039;-79
2021/06/24 07:46:20;;;;;;;13.73;6.88;;;39.80;37.00;;;;;;5054389;28;20025;-78
2021/06/24 07:48:49;;;;;;;23.90;7.05;;;39.80;37.60;;;;;;5054394;28;20064;-79
2021/06/24 07:51:15;;;;;;;17.58;6.97;;;40.20;37.20;;;;;;5054600;28;20488;-80
2021/06/24 07:53:43;;;;;;;14.80;6.90;;;40.20;37.10;;;;;;5072487;28;20036;-79
2021/06/24 07:56:14;;;;;;;17.23;7.13;;;39.90;37.90;;;;;;5054430;28;20029;-79
2021/06/24 07:58:39;;;;;;;24.27;7.20;;;39.30;38.50;;;;;;5054516;28;20036;-79
2021/06/24 08:01:06;;;;;;;18.23;6.90;;;39.60;38.00;;;;;;5072268;28;20020;-79
2021/06/24 08:03:32;;;;;;;20.08;5.47;;;39.70;37.00;;;;;;5072095;28;20100;-80
2021/06/24 08:05:58;;;;;;;27.13;7.18;;;40.30;35.60;;;;;;5054279;28;20039;-79
2021/06/24 08:08:24;;;;;;;13.52;6.63;;;40.60;35.60;;;;;;5072123;28;20032;-79
2021/06/24 08:10:50;;;;;;;19.05;5.93;;;40.50;35.70;;;;;;5054171;28;20033;-79
2021/06/24 08:13:16;;;;;;;15.93;5.30;;;40.60;35.80;;;;;;5054425;28;20029;-79
2021/06/24 08:15:42;;;;;;;23.15;6.97;;;40.30;34.30;;;;;;5072192;28;20028;-80
2021/06/24 08:18:07;;;;;;;15.20;6.30;;;40.60;35.30;;;;;;5071834;28;20032;-80
2021/06/24 08:20:33;;;;;;;12.50;5.35;;;40.60;34.90;;;;;;5054091;28;20029;-80
2021/06/24 08:22:59;;;;;;;9.98;4.88;;;40.80;32.40;;;;;;5053904;28;20028;-79
2021/06/24 08:25:25;;;;;;;14.57;4.25;;;40.80;31.50;;;;;;5071767;28;20107;-80
2021/06/24 08:27:51;;;;;;;19.95;4.88;;;41.20;30.60;;;;;;5071862;28;20132;-80
2021/06/24 08:30:18;;;;;;;23.25;6.90;;;41.60;30.00;;;;;;5053273;28;20135;-80
2021/06/24 08:32:44;;;;;;;18.60;5.72;;;41.90;32.40;;;;;;5053564;28;20024;-80
2021/06/24 08:35:10;;;;;;;17.13;5.57;;;42.00;32.50;;;;;;5053532;28;20282;-80
2021/06/24 08:37:37;;;;;;;19.23;5.20;;;42.20;30.10;;;;;;5071485;28;20178;-78
2021/06/24 08:40:08;;;;;;;18.58;6.28;;;42.10;30.50;;;;;;5071457;28;20024;-79
2021/06/24 08:42:34;;;;;;;16.33;5.38;;;42.50;31.00;;;;;;5053309;28;20025;-80
2021/06/24 08:45:02;;;;;;;14.77;6.35;;;41.60;30.60;;;;;;5053271;28;20393;-79
2021/06/24 08:47:28;;;;;;;18.48;5.70;;;41.60;31.90;;;;;;5053446;28;20501;-81
2021/06/24 08:49:56;;;;;;;21.70;6.05;;;41.90;31.20;;;;;;5067879;28;20385;-78
2021/06/24 08:52:22;;;;;;;17.13;5.20;;;41.80;30.70;;;;;;5050153;28;20119;-79
2021/06/24 08:54:47;;;;;;;21.33;5.15;;;41.40;32.50;;;;;;5051394;28;20107;-80
2021/06/24 08:57:15;;;;;;;17.85;4.90;;;41.20;32.70;;;;;;5050094;28;20037;-79
2021/06/24 08:59:40;;;;;;;16.08;5.15;;;41.10;30.00;;;;;;5049760;28;20505;-80
2021/06/24 09:02:11;;;;;;;20.67;5.18;;;41.00;31.10;;;;;;5051312;28;20064;-80
2021/06/24 09:04:40;;;;;;;19.20;4.20;;;41.30;30.40;;;;;;5050052;28;20437;-81
2021/06/24 09:07:10;;;;;;;22.70;5.28;;;41.20;30.00;;;;;;5051068;28;20017;-80
2021/06/24 09:09:37;;;;;;;12.82;4.47;;;41.30;30.30;;;;;;5050888;28;20029;-80
2021/06/24 09:12:06;;;;;;;12.27;5.47;;;41.20;30.20;;;;;;5049864;28;20120;-79
2021/06/24 09:14:39;;;;;;;19.55;6.00;;;40.90;30.60;;;;;;5050877;28;20075;-80
2021/06/24 09:17:05;;;;;;;18.40;4.25;;;41.10;31.40;;;;;;5049541;28;20037;-80
2021/06/24 09:19:31;;;;;;;18.52;4.90;;;41.00;30.90;;;;;;5050827;28;20473;-79
2021/06/24 09:22:04;;;;;;;15.30;4.65;;;41.30;31.00;;;;;;5049414;28;20119;-79
2021/06/24 09:24:43;;;;;;;16.70;4.80;;;41.80;31.10;;;;;;5049204;28;20094;-79
2021/06/24 09:27:18;;;;;;;13.13;4.93;;;42.00;29.70;;;;;;5050660;28;20032;-79
2021/06/24 09:30:02;;;;;;;17.67;5.38;;;41.80;30.30;;;;;;5049102;28;20425;-79
2021/06/24 09:32:30;;;;;;;16.40;4.90;;;41.90;29.10;;;;;;5050583;28;20033;-79
2021/06/24 09:34:56;;;;;;;19.48;4.75;;;41.70;30.00;;;;;;5049059;28;20148;-79
2021/06/24 09:37:21;;;;;;;15.68;5.20;;;41.30;30.00;;;;;;5050560;28;20154;-79
2021/06/24 09:39:48;;;;;;;16.05;4.63;;;41.10;29.90;;;;;;5050567;28;20029;-79
2021/06/24 09:42:14;;;;;;;15.05;4.32;;;41.10;29.70;;;;;;5050373;28;20501;-80
2021/06/24 09:44:46;;;;;;;13.13;4.82;;;41.00;29.60;;;;;;5050500;28;20763;-79
2021/06/24 09:47:26;;;;;;;19.08;4.25;;;41.10;30.00;;;;;;5048949;28;20036;-79
2021/06/24 09:49:56;;;;;;;11.63;4.65;;;41.50;28.30;;;;;;5050337;28;20032;-80
2021/06/24 09:52:22;;;;;;;17.02;4.75;;;41.70;29.10;;;;;;5048880;28;20082;-79
2021/06/24 09:54:50;;;;;;;16.08;5.45;;;41.90;28.70;;;;;;5048910;28;20025;-80
2021/06/24 09:57:24;;;;;;;11.60;4.47;;;41.80;29.10;;;;;;5050215;28;20028;-80
2021/06/24 09:59:51;;;;;;;14.90;4.68;;;42.00;28.00;;;;;;5050140;28;20096;-80
2021/06/24 10:02:20;;;;;;;16.73;4.65;;;42.10;28.40;;;;;;5049960;28;20036;-79
2021/06/24 10:04:47;;;;;;;22.55;4.75;;;41.90;28.40;;;;;;5048861;28;20024;-78
2021/06/24 10:07:15;;;;;;;16.17;4.90;;;41.60;29.30;;;;;;5048876;28;20036;-79
2021/06/24 10:09:43;;;;;;;14.75;4.18;;;41.10;29.70;;;;;;5049864;28;20025;-79
2021/06/24 10:12:11;;;;;;;9.32;4.43;;;40.60;29.80;;;;;;5048542;28;20064;-78
2021/06/24 10:14:38;;;;;;;14.07;5.05;;;40.10;30.10;;;;;;5048418;28;20409;-79
2021/06/24 10:17:05;;;;;;;16.77;4.18;;;39.90;30.80;;;;;;5049550;28;20493;-81
2021/06/24 10:19:36;;;;;;;18.58;4.47;;;39.90;30.30;;;;;;5049678;28;20036;-79
2021/06/24 10:22:09;;;;;;;12.23;4.43;;;39.70;30.50;;;;;;5048577;28;20074;-81
2021/06/24 10:24:42;;;;;;;24.42;4.60;;;39.50;31.00;;;;;;5049523;28;20094;-79
2021/06/24 10:27:08;;;;;;;15.25;4.57;;;38.90;32.00;;;;;;5049547;28;20418;-79
2021/06/24 10:29:46;;;;;;;17.38;4.22;;;38.60;33.60;;;;;;5049380;28;20413;-79
2021/06/24 10:32:32;;;;;;;16.98;4.35;;;38.30;32.80;;;;;;5048469;28;20071;-79
2021/06/24 10:35:00;;;;;;;19.17;4.70;;;38.10;33.90;;;;;;5048137;28;20029;-80
2021/06/24 10:37:27;;;;;;;24.35;3.85;;;38.10;34.80;;;;;;5048616;28;20040;-80
2021/06/24 10:40:23;;;;;;;20.60;4.30;;;38.10;32.40;;;;;;5049389;28;20552;-79
2021/06/24 10:42:57;;;;;;;14.43;3.70;;;37.90;33.00;;;;;;5048455;28;20064;-80
2021/06/24 10:45:25;;;;;;;11.55;3.90;;;37.50;33.00;;;;;;5047936;28;20079;-79
2021/06/24 10:47:51;;;;;;;15.38;4.15;;;37.50;33.60;;;;;;5049435;28;20032;-79
2021/06/24 10:50:26;;;;;;;23.48;4.03;;;37.60;32.90;;;;;;5050909;28;20032;-79
2021/06/24 10:53:04;;;;;;;14.68;4.60;;;37.50;32.90;;;;;;5069120;28;20405;-78
2021/06/24 10:55:43;;;;;;;13.73;3.95;;;37.50;34.00;;;;;;5049824;28;20497;-78
2021/06/24 10:58:18;;;;;;;12.63;4.57;;;37.40;32.70;;;;;;5047695;28;20035;-80
2021/06/24 11:00:57;;;;;;;22.38;3.92;;;37.30;33.80;;;;;;5048815;28;20553;-78
2021/06/24 11:03:26;;;;;;;19.08;3.83;;;37.10;33.60;;;;;;5064252;28;20453;-78
2021/06/24 11:05:54;;;;;;;14.23;4.63;;;36.90;33.80;;;;;;5051071;28;20040;-79
2021/06/24 11:08:27;;;;;;;20.98;3.70;;;37.00;32.70;;;;;;5072005;28;20523;-79
2021/06/24 11:10:54;;;;;;;13.35;3.03;;;36.80;34.00;;;;;;5066893;28;20044;-79
2021/06/24 11:13:42;;;;;;;20.65;3.70;;;36.70;33.80;;;;;;5071696;28;20013;-78
2021/06/24 11:16:10;;;;;;;11.25;3.40;;;36.90;33.60;;;;;;5050425;28;20045;-77
2021/06/24 11:18:36;;;;;;;22.00;3.53;;;37.00;33.40;;;;;;5051830;28;20393;-78
2021/06/24 11:21:04;;;;;;;10.45;4.15;;;37.10;33.60;;;;;;5051808;28;20485;-77
2021/06/24 11:23:34;;;;;;;15.13;3.45;;;37.30;34.40;;;;;;5051445;28;20021;-75
2021/06/24 11:26:03;;;;;;;17.42;4.13;;;37.40;34.10;;;;;;5051675;28;20489;-77
2021/06/24 11:31:12;;;;;;;7.07;2.85;;;37.50;34.40;;;;;;5052481;28;20057;-76
2021/06/24 11:33:56;;;;;;;19.90;3.13;;;37.50;32.70;;;;;;5051743;28;20481;-77
2021/06/24 11:36:21;;;;;;;14.98;3.80;;;37.50;31.60;;;;;;5051239;28;20030;-77
2021/06/24 11:38:49;;;;;;;19.92;3.33;;;37.20;32.00;;;;;;5052581;28;20033;-76
2021/06/24 11:41:20;;;;;;;18.10;3.10;;;37.10;30.90;;;;;;5051278;28;20079;-77
2021/06/24 11:44:23;;;;;;;11.65;2.92;;;37.00;32.20;;;;;;5051156;28;20515;-77
2021/06/24 11:46:54;;;;;;;15.00;3.45;;;37.20;31.50;;;;;;5041499;28;20045;-77
2021/06/24 12:03:20;;;;;;;22.13;3.40;;;37.80;30.60;;;;;;5030760;28;20048;-79
2021/06/24 12:05:53;;;;;;;17.00;2.70;;;37.50;31.40;;;;;;5050719;28;20022;-81
2021/06/24 12:08:21;;;;;;;23.67;3.55;;;37.50;32.70;;;;;;5052069;28;20029;-80
2021/06/24 12:10:46;;;;;;;10.90;2.75;;;37.70;32.70;;;;;;5052151;28;20397;-79
2021/06/24 12:13:12;;;;;;;20.25;3.40;;;37.70;31.70;;;;;;5050625;28;20031;-79
2021/06/24 12:15:37;;;;;;;12.40;2.90;;;37.70;31.50;;;;;;5049310;28;20025;-79
2021/06/24 12:18:03;;;;;;;10.35;3.03;;;37.80;30.20;;;;;;5051972;28;20021;-79
2021/06/24 12:20:29;;;;;;;21.05;3.53;;;37.70;31.00;;;;;;5050535;28;20021;-80
2021/06/24 12:23:01;;;;;;;15.93;3.17;;;37.90;30.60;;;;;;5050741;28;20069;-81
2021/06/24 12:25:36;;;;;;;13.90;3.22;;;37.70;30.20;;;;;;5057675;28;20037;-80
2021/06/24 12:28:06;;;;;;;10.95;3.58;;;37.50;31.10;;;;;;5053886;28;20064;-80
2021/06/24 12:30:35;;;;;;;13.90;3.47;;;37.40;32.50;;;;;;5053399;28;20159;-80
2021/06/24 12:33:03;;;;;;;13.60;3.38;;;37.50;32.50;;;;;;5053502;28;20074;-79
2021/06/24 12:35:40;;;;;;;18.23;3.30;;;37.40;32.00;;;;;;5071740;28;20448;-79
2021/06/24 12:38:08;;;;;;;18.27;3.10;;;37.50;32.60;;;;;;5071596;28;20035;-79
2021/06/24 12:40:43;;;;;;;13.63;2.72;;;37.50;31.90;;;;;;5053534;28;20078;-80
2021/06/24 12:43:16;;;;;;;14.40;3.25;;;37.50;32.80;;;;;;5071478;28;20516;-79
2021/06/24 12:45:42;;;;;;;16.02;3.10;;;37.40;32.20;;;;;;5070751;28;20078;-80
2021/06/24 12:48:38;;;;;;;18.63;3.95;;;37.30;32.70;;;;;;5068279;28;20028;-79
2021/06/24 12:51:14;;;;;;;20.55;3.83;;;37.20;33.80;;;;;;5037206;28;20045;-79
2021/06/24 12:53:42;;;;;;;16.80;2.75;;;37.20;32.80;;;;;;5050462;28;20021;-80
2021/06/24 12:56:26;;;;;;;16.50;3.30;;;37.20;32.70;;;;;;5070085;28;20029;-79